Time;durP1;ratioP1;P1;durP2;ratioP2;P2;SDS_P1;SDS_P2;PMS_P1;PMS_P2;Temp;Humidity;BMP_temperature;BMP_pressure;BME280_temperature;BME280_humidity;BME280_pressure;Samples;Min_cycle;Max_cycle;Signal;HPM_P1;HPM_P2
2021/01/22 00:08:42;;;;;;;7.95;2.97;;;1.90;99.90;;;;;;20566660;28;20094;-59
2021/01/22 00:18:44;;;;;;;711.30;37.28;;;1.90;99.90;;;;;;20565707;28;20416;-57
2021/01/22 00:28:46;;;;;;;1272.07;49.15;;;2.00;99.90;;;;;;20550228;28;20035;-61
2021/01/22 00:38:48;;;;;;;1074.63;42.58;;;2.10;99.90;;;;;;20582658;28;20081;-60
2021/01/22 00:48:51;;;;;;;696.05;23.80;;;2.00;99.90;;;;;;20565372;28;20035;-58
2021/01/22 00:58:54;;;;;;;591.40;20.98;;;2.10;99.90;;;;;;20548920;28;20117;-58
2021/01/22 01:09:09;;;;;;;61.90;6.43;;;2.10;99.90;;;;;;20574782;28;20047;-59
2021/01/22 01:19:28;;;;;;;731.53;27.23;;;2.20;99.90;;;;;;20579307;28;20101;-58
2021/01/22 01:29:29;;;;;;;532.92;16.77;;;2.30;99.90;;;;;;20596327;28;20101;-59
2021/01/22 01:39:31;;;;;;;197.05;7.57;;;2.20;99.90;;;;;;20594648;28;20051;-59
2021/01/22 01:49:34;;;;;;;16.17;4.18;;;2.00;99.90;;;;;;20594532;28;20101;-60
2021/01/22 01:59:36;;;;;;;1.80;1.10;;;1.80;99.90;;;;;;20593561;28;20043;-60
2021/01/22 02:09:39;;;;;;;18.63;2.25;;;1.90;99.90;;;;;;20592973;28;20486;-59
2021/01/22 02:19:59;;;;;;;790.05;24.50;;;1.90;99.90;;;;;;20573136;28;20043;-59
2021/01/22 02:30:05;;;;;;;755.90;23.52;;;2.00;99.90;;;;;;20574594;28;20177;-59
2021/01/22 02:40:09;;;;;;;820.47;26.48;;;2.20;99.90;;;;;;20573292;28;20042;-59
2021/01/22 02:50:15;;;;;;;391.50;12.15;;;2.20;99.90;;;;;;20590493;28;20050;-59
2021/01/22 03:00:19;;;;;;;632.50;27.80;;;2.20;99.90;;;;;;20571321;28;20047;-59
2021/01/22 03:10:22;;;;;;;1115.88;37.22;;;2.10;99.90;;;;;;20571021;28;20417;-59
2021/01/22 03:20:24;;;;;;;839.75;29.10;;;2.20;99.90;;;;;;20570371;28;20393;-58
2021/01/22 03:30:26;;;;;;;1772.55;56.00;;;2.20;99.90;;;;;;20587530;28;20054;-59
2021/01/22 03:40:29;;;;;;;723.45;24.77;;;2.20;99.90;;;;;;20586142;28;20039;-59
2021/01/22 03:50:31;;;;;;;726.55;24.33;;;2.20;99.90;;;;;;20585960;28;20039;-59
2021/01/22 04:00:34;;;;;;;1012.55;38.85;;;2.10;99.90;;;;;;20569057;28;20054;-59
2021/01/22 04:10:36;;;;;;;1362.50;51.67;;;2.20;99.90;;;;;;20583368;28;20055;-59
2021/01/22 04:20:38;;;;;;;92.35;4.55;;;2.30;99.90;;;;;;20583138;28;20102;-58
2021/01/22 04:30:40;;;;;;;3.53;1.20;;;2.30;99.90;;;;;;20583216;28;20370;-58
2021/01/22 04:40:42;;;;;;;4.18;1.13;;;2.40;99.90;;;;;;20581945;28;20043;-58
2021/01/22 04:50:44;;;;;;;3.42;1.13;;;2.60;99.90;;;;;;20581851;28;20400;-58
2021/01/22 05:00:47;;;;;;;472.60;24.90;;;2.70;99.90;;;;;;20581187;28;20575;-58
2021/01/22 05:10:49;;;;;;;2.65;1.30;;;2.70;99.90;;;;;;20581366;28;20109;-58
2021/01/22 05:20:52;;;;;;;1.85;0.70;;;2.60;99.90;;;;;;20563391;28;20043;-58
2021/01/22 05:30:56;;;;;;;2.72;0.70;;;2.60;99.90;;;;;;20581345;28;20031;-58
2021/01/22 05:40:58;;;;;;;1.52;0.70;;;2.80;99.90;;;;;;20563503;28;20039;-58
2021/01/22 05:51:00;;;;;;;4.05;0.70;;;2.80;99.90;;;;;;20583286;28;20437;-58
2021/01/22 06:01:12;;;;;;;2.08;0.80;;;2.80;99.90;;;;;;20593977;28;20043;-58
2021/01/22 06:11:16;;;;;;;170.80;8.52;;;2.70;99.90;;;;;;20575545;28;20082;-58
2021/01/22 06:21:24;;;;;;;360.35;19.13;;;2.70;99.90;;;;;;20591094;28;20564;-58
2021/01/22 06:31:27;;;;;;;263.52;14.73;;;2.70;99.90;;;;;;20592044;28;20038;-58
2021/01/22 06:41:30;;;;;;;374.42;18.80;;;2.70;99.90;;;;;;20573487;28;20496;-58
2021/01/22 06:51:34;;;;;;;179.32;11.25;;;2.70;99.90;;;;;;20572676;28;20058;-58
2021/01/22 07:01:36;;;;;;;566.03;24.25;;;2.60;99.90;;;;;;20588580;28;20569;-57
2021/01/22 07:11:55;;;;;;;748.70;29.92;;;2.70;99.90;;;;;;20588472;28;20093;-58
2021/01/22 07:21:59;;;;;;;335.73;17.70;;;2.60;99.90;;;;;;20570484;28;20043;-58
2021/01/22 07:32:04;;;;;;;744.60;31.90;;;2.70;99.90;;;;;;20587654;28;20034;-58
2021/01/22 07:42:11;;;;;;;466.15;18.60;;;2.70;99.90;;;;;;20586218;28;20481;-59
2021/01/22 07:52:18;;;;;;;600.17;18.23;;;2.80;99.90;;;;;;20585518;28;20482;-57
2021/01/22 08:02:21;;;;;;;406.35;15.00;;;2.60;99.90;;;;;;20585001;28;20039;-58
2021/01/22 08:12:24;;;;;;;147.05;6.50;;;2.80;99.90;;;;;;20582901;28;20394;-58
2021/01/22 08:22:26;;;;;;;4.47;2.15;;;3.10;99.90;;;;;;20565586;28;20031;-58
2021/01/22 08:32:30;;;;;;;2.28;1.40;;;3.40;99.90;;;;;;20581903;28;20121;-59
2021/01/22 08:42:33;;;;;;;0.77;0.30;;;4.00;99.90;;;;;;20582962;28;20103;-58
2021/01/22 08:52:35;;;;;;;0.25;0.00;;;4.50;99.90;;;;;;20582400;28;20026;-58
2021/01/22 09:02:41;;;;;;;1.17;0.60;;;4.80;99.90;;;;;;20580581;28;20047;-59
2021/01/22 09:12:44;;;;;;;2.47;1.00;;;4.70;99.90;;;;;;20583521;28;20199;-59
2021/01/22 09:22:52;;;;;;;2.40;1.08;;;4.40;99.90;;;;;;20579932;28;20082;-59
2021/01/22 09:32:58;;;;;;;4.60;0.90;;;4.50;99.90;;;;;;20577584;28;20433;-59
2021/01/22 09:43:01;;;;;;;1.25;0.50;;;5.20;99.90;;;;;;20595381;28;20126;-59
2021/01/22 09:53:03;;;;;;;1.58;0.80;;;5.90;99.90;;;;;;20594014;28;20094;-59
2021/01/22 10:03:05;;;;;;;1.45;0.57;;;6.60;99.90;;;;;;20593098;28;20047;-60
2021/01/22 10:13:06;;;;;;;2.17;0.80;;;6.00;99.90;;;;;;20559936;28;20062;-59
2021/01/22 10:23:08;;;;;;;1.85;0.47;;;5.60;99.90;;;;;;20591918;28;20409;-59
2021/01/22 10:33:10;;;;;;;2.35;0.55;;;5.40;99.90;;;;;;20574356;28;20038;-60
2021/01/22 10:43:12;;;;;;;5.80;0.68;;;5.90;99.90;;;;;;20590663;28;20444;-59
2021/01/22 10:53:15;;;;;;;1.90;0.50;;;5.70;99.90;;;;;;20589328;28;20113;-60
2021/01/22 11:03:19;;;;;;;2.28;0.50;;;5.20;99.90;;;;;;20583848;28;20109;-60
2021/01/22 11:13:21;;;;;;;2.80;1.17;;;5.40;99.90;;;;;;20643874;28;20086;-59
2021/01/22 11:23:23;;;;;;;5.18;1.83;;;4.80;99.90;;;;;;20570219;28;20097;-60
2021/01/22 11:33:25;;;;;;;153.52;7.68;;;4.30;99.90;;;;;;20586914;28;20062;-58
2021/01/22 11:43:27;;;;;;;208.68;8.18;;;3.80;99.90;;;;;;20587173;28;20062;-60
2021/01/22 11:53:29;;;;;;;76.43;3.20;;;3.40;99.90;;;;;;20585371;28;20432;-59
2021/01/22 12:03:31;;;;;;;0.10;0.00;;;3.30;99.90;;;;;;20744586;23;20114;-59
2021/01/22 12:13:34;;;;;;;0.10;0.00;;;3.10;99.90;;;;;;20584408;28;20070;-59
2021/01/22 12:23:36;;;;;;;0.00;0.00;;;2.90;99.90;;;;;;20583375;28;20126;-59
2021/01/22 12:33:39;;;;;;;0.10;0.00;;;2.80;99.90;;;;;;20581400;28;20042;-60
2021/01/22 12:43:42;;;;;;;0.15;0.00;;;2.60;99.90;;;;;;20566253;28;20435;-58
2021/01/22 12:53:45;;;;;;;0.15;0.00;;;2.50;99.90;;;;;;20564693;28;20448;-58
2021/01/22 13:03:47;;;;;;;0.00;0.00;;;2.50;99.90;;;;;;20589601;28;20050;-59
2021/01/22 13:13:49;;;;;;;0.00;0.00;;;2.50;99.90;;;;;;20580618;28;20085;-59
2021/01/22 13:23:51;;;;;;;0.47;0.00;;;2.00;99.90;;;;;;20589014;28;20075;-61
2021/01/22 13:33:54;;;;;;;0.00;0.00;;;1.80;99.90;;;;;;20579212;28;20031;-59
2021/01/22 13:43:56;;;;;;;0.00;0.00;;;2.00;99.90;;;;;;20595120;28;20051;-60
2021/01/22 13:53:59;;;;;;;0.08;0.00;;;2.00;99.90;;;;;;20576466;28;20094;-59
2021/01/22 14:04:00;;;;;;;0.00;0.00;;;1.70;99.90;;;;;;20593467;28;20074;-59
2021/01/22 14:14:03;;;;;;;0.00;0.00;;;1.60;99.90;;;;;;20592030;28;20348;-58
2021/01/22 14:24:05;;;;;;;0.00;0.00;;;1.40;99.90;;;;;;20574691;28;20034;-57
2021/01/22 14:34:07;;;;;;;0.17;0.00;;;1.20;99.90;;;;;;20591837;28;20097;-56
2021/01/22 14:44:09;;;;;;;0.00;0.00;;;1.10;99.90;;;;;;20591626;28;20097;-59
2021/01/22 14:54:11;;;;;;;0.00;0.00;;;1.30;99.90;;;;;;20572439;28;20497;-59
2021/01/22 15:04:13;;;;;;;0.00;0.00;;;1.60;99.90;;;;;;20588447;28;20464;-59
2021/01/22 15:14:15;;;;;;;0.00;0.00;;;1.70;99.90;;;;;;20588843;28;20093;-58
2021/01/22 15:24:17;;;;;;;0.00;0.00;;;1.70;99.90;;;;;;20570487;28;20050;-56
2021/01/22 15:34:20;;;;;;;0.00;0.00;;;1.70;99.90;;;;;;20570275;28;20540;-58
2021/01/22 15:44:22;;;;;;;0.00;0.00;;;1.90;99.90;;;;;;20586696;28;20050;-59
2021/01/22 15:54:24;;;;;;;0.00;0.00;;;2.40;99.90;;;;;;20552366;28;20031;-58
2021/01/22 16:04:26;;;;;;;0.00;0.00;;;2.40;99.90;;;;;;20583916;28;20480;-60
2021/01/22 16:14:29;;;;;;;0.85;0.00;;;2.50;99.90;;;;;;20567720;28;20034;-58
2021/01/22 16:24:31;;;;;;;0.10;0.00;;;2.40;99.90;;;;;;20582919;28;20094;-60
2021/01/22 16:34:33;;;;;;;2.63;0.00;;;2.50;99.90;;;;;;20582104;28;20497;-58
2021/01/22 16:44:36;;;;;;;0.13;0.05;;;2.50;99.90;;;;;;20549744;28;20039;-58
2021/01/22 16:54:38;;;;;;;0.20;0.20;;;2.50;99.90;;;;;;20564299;28;20055;-59
2021/01/22 17:04:40;;;;;;;0.47;0.20;;;2.60;99.90;;;;;;20563996;28;20391;-60
2021/01/22 17:14:44;;;;;;;2.03;0.93;;;2.40;99.90;;;;;;20581221;28;20051;-59
2021/01/22 17:24:46;;;;;;;196.57;8.05;;;2.50;99.90;;;;;;20580568;28;20050;-59
2021/01/22 17:34:51;;;;;;;251.02;8.85;;;2.60;99.90;;;;;;20580312;28;20046;-59
2021/01/22 17:44:54;;;;;;;200.38;7.32;;;2.60;99.90;;;;;;20580594;28;20113;-60
2021/01/22 17:54:56;;;;;;;4.07;0.30;;;2.60;99.90;;;;;;20593879;28;20125;-60
2021/01/22 18:04:58;;;;;;;13.88;0.77;;;2.80;99.90;;;;;;20593744;28;20116;-59
2021/01/22 18:14:59;;;;;;;0.52;0.22;;;2.60;99.90;;;;;;20593825;28;20401;-59
2021/01/22 18:25:02;;;;;;;1.48;0.20;;;2.80;99.90;;;;;;20591994;28;20054;-60
2021/01/22 18:35:05;;;;;;;0.57;0.10;;;2.80;99.90;;;;;;20591353;28;20031;-59
2021/01/22 18:45:08;;;;;;;0.40;0.28;;;2.70;99.90;;;;;;20591038;28;20030;-59
2021/01/22 18:55:10;;;;;;;0.40;0.10;;;2.70;99.90;;;;;;20590177;28;20493;-59
2021/01/22 19:05:14;;;;;;;0.47;0.10;;;2.90;99.90;;;;;;20588709;28;20441;-60
2021/01/22 19:15:16;;;;;;;0.50;0.30;;;2.80;99.90;;;;;;20571571;28;20109;-59
2021/01/22 19:25:18;;;;;;;3.25;0.45;;;2.90;99.90;;;;;;20588286;28;20089;-59
2021/01/22 19:35:21;;;;;;;0.90;0.20;;;2.80;99.90;;;;;;20585914;28;20054;-59
2021/01/22 19:45:24;;;;;;;1.30;0.30;;;3.00;99.90;;;;;;20586746;28;20555;-59
2021/01/22 19:55:32;;;;;;;0.70;0.40;;;3.20;99.90;;;;;;20584229;28;20046;-59
2021/01/22 20:05:36;;;;;;;0.50;0.32;;;3.00;99.90;;;;;;20567309;28;20055;-59
2021/01/22 20:15:38;;;;;;;0.22;0.20;;;3.00;99.90;;;;;;20566186;28;20468;-59
2021/01/22 20:25:41;;;;;;;2.20;0.30;;;3.10;99.90;;;;;;20582698;28;20047;-60
2021/01/22 20:35:44;;;;;;;1.20;0.30;;;3.00;99.90;;;;;;20565759;28;20189;-59
2021/01/22 20:45:50;;;;;;;1.35;0.03;;;2.80;99.90;;;;;;20566347;28;20042;-59
2021/01/22 20:55:53;;;;;;;0.73;0.30;;;2.80;99.90;;;;;;20549202;28;20085;-60
2021/01/22 21:05:59;;;;;;;216.70;7.43;;;2.70;99.90;;;;;;20580841;28;20052;-59
2021/01/22 21:16:06;;;;;;;491.70;15.80;;;2.70;99.90;;;;;;20564534;28;20047;-59
2021/01/22 21:26:09;;;;;;;445.38;12.82;;;2.50;99.90;;;;;;20590893;28;20178;-59
2021/01/22 21:36:12;;;;;;;925.72;26.92;;;2.40;99.90;;;;;;20595059;28;20039;-59
2021/01/22 21:46:17;;;;;;;494.17;14.95;;;2.20;99.90;;;;;;20595739;28;20050;-59
2021/01/22 21:56:21;;;;;;;239.57;6.38;;;2.20;99.90;;;;;;20593551;28;20106;-58
2021/01/22 22:06:25;;;;;;;1.75;0.10;;;2.10;99.90;;;;;;20594388;28;20058;-59
2021/01/22 22:16:27;;;;;;;0.00;0.00;;;1.90;99.90;;;;;;20592382;28;20047;-59
2021/01/22 22:26:30;;;;;;;0.45;0.20;;;1.80;99.90;;;;;;20592286;28;20043;-58
2021/01/22 22:36:32;;;;;;;0.17;0.10;;;1.60;99.90;;;;;;20591050;28;20034;-59
2021/01/22 22:46:34;;;;;;;0.10;0.00;;;1.70;99.90;;;;;;20591128;28;20117;-59
2021/01/22 22:56:36;;;;;;;0.77;0.00;;;1.60;99.90;;;;;;20589631;28;20046;-59
2021/01/22 23:06:39;;;;;;;0.15;0.00;;;1.60;99.90;;;;;;20589937;28;20089;-59
2021/01/22 23:16:43;;;;;;;0.00;0.00;;;1.60;99.90;;;;;;20588244;28;20046;-59
2021/01/22 23:26:47;;;;;;;0.28;0.03;;;1.50;99.90;;;;;;20586691;28;20050;-59
2021/01/22 23:36:48;;;;;;;1.45;0.10;;;1.60;99.90;;;;;;20587524;28;20444;-59
2021/01/22 23:46:50;;;;;;;0.17;0.08;;;1.70;99.90;;;;;;20586192;28;20085;-60
2021/01/22 23:56:52;;;;;;;0.10;0.00;;;1.70;99.90;;;;;;20585554;28;20034;-60
